createdAt,value
2018-05-06T00:02:13.801Z,6.20
2018-05-06T00:04:39.774Z,6.33
2018-05-06T00:07:05.739Z,6.17
2018-05-06T00:09:31.702Z,6.50
2018-05-06T00:11:57.670Z,6.57
2018-05-06T00:14:23.645Z,5.67
2018-05-06T00:16:49.606Z,6.23
2018-05-06T00:19:16.318Z,5.00
2018-05-06T00:21:42.285Z,5.33
2018-05-06T00:24:09.003Z,5.60
2018-05-06T00:26:34.971Z,5.73
2018-05-06T00:29:01.690Z,5.90
2018-05-06T00:31:27.661Z,6.70
2018-05-06T00:33:53.638Z,5.07
2018-05-06T00:36:19.602Z,6.17
2018-05-06T00:38:45.573Z,5.70
2018-05-06T00:41:11.541Z,5.97
2018-05-06T00:43:37.508Z,6.10
2018-05-06T00:46:03.478Z,5.70
2018-05-06T00:48:29.439Z,6.47
2018-05-06T00:50:55.405Z,6.00
2018-05-06T00:53:21.373Z,5.70
2018-05-06T00:55:48.082Z,6.00
2018-05-06T00:58:14.042Z,6.47
2018-05-06T01:00:40.006Z,5.63
2018-05-06T01:03:05.953Z,5.70
2018-05-06T01:05:31.910Z,5.80
2018-05-06T01:07:57.845Z,6.23
2018-05-06T01:10:23.785Z,6.20
2018-05-06T01:12:49.750Z,6.13
2018-05-06T01:15:15.699Z,6.17
2018-05-06T01:17:42.386Z,6.47
2018-05-06T01:20:08.353Z,6.07
2018-05-06T01:22:34.315Z,6.73
2018-05-06T01:25:01.020Z,5.70
2018-05-06T01:27:26.975Z,6.30
2018-05-06T01:29:52.952Z,5.60
2018-05-06T01:32:18.930Z,5.47
2018-05-06T01:34:44.892Z,6.60
2018-05-06T01:37:10.855Z,5.80
2018-05-06T01:39:36.807Z,5.93
2018-05-06T01:42:02.776Z,6.83
2018-05-06T01:44:28.730Z,5.87
2018-05-06T01:46:54.698Z,5.50
2018-05-06T01:49:20.719Z,6.10
2018-05-06T01:51:47.418Z,5.97
2018-05-06T01:54:13.367Z,5.90
2018-05-06T01:56:39.326Z,5.97
2018-05-06T01:59:06.023Z,5.40
2018-05-06T02:01:31.992Z,6.30
2018-05-06T02:03:57.951Z,5.87
2018-05-06T02:06:24.715Z,6.03
2018-05-06T02:08:51.411Z,5.40
2018-05-06T02:11:17.374Z,6.53
2018-05-06T02:13:43.318Z,5.20
2018-05-06T02:16:09.271Z,5.20
2018-05-06T02:18:35.978Z,5.77
2018-05-06T02:21:01.935Z,6.17
2018-05-06T02:23:28.631Z,5.10
2018-05-06T02:25:54.603Z,5.30
2018-05-06T02:28:20.562Z,5.93
2018-05-06T02:30:47.323Z,5.40
2018-05-06T02:33:14.035Z,5.53
2018-05-06T02:35:39.991Z,5.33
2018-05-06T02:38:05.951Z,5.37
2018-05-06T02:40:31.909Z,5.20
2018-05-06T02:42:57.876Z,5.60
2018-05-06T02:45:23.834Z,5.00
2018-05-06T02:47:49.796Z,5.60
2018-05-06T02:50:15.755Z,5.60
2018-05-06T02:52:41.711Z,5.30
2018-05-06T02:55:07.694Z,5.10
2018-05-06T02:57:33.652Z,5.10
2018-05-06T02:59:59.618Z,5.50
2018-05-06T03:02:25.579Z,6.03
2018-05-06T03:04:52.292Z,5.50
2018-05-06T03:07:18.263Z,5.33
2018-05-06T03:09:44.212Z,5.37
2018-05-06T03:12:10.922Z,5.67
2018-05-06T03:14:36.887Z,5.47
2018-05-06T03:17:03.582Z,6.10
2018-05-06T03:19:29.539Z,5.23
2018-05-06T03:21:55.510Z,5.37
2018-05-06T03:24:22.219Z,4.93
2018-05-06T03:26:48.198Z,5.40
2018-05-06T03:29:14.904Z,5.23
2018-05-06T03:31:40.855Z,5.30
2018-05-06T03:34:06.810Z,4.60
2018-05-06T03:36:32.764Z,5.20
2018-05-06T03:38:59.470Z,5.10
2018-05-06T03:41:25.427Z,5.00
2018-05-06T03:43:51.394Z,6.13
2018-05-06T03:46:17.363Z,5.20
2018-05-06T03:48:43.331Z,5.10
2018-05-06T03:51:09.283Z,4.63
2018-05-06T03:53:35.984Z,4.87
2018-05-06T03:59:26.746Z,5.10
2018-05-06T04:02:16.923Z,4.03
2018-05-06T04:04:42.882Z,4.23
2018-05-06T04:07:08.835Z,4.40
2018-05-06T04:09:34.799Z,3.93
2018-05-06T04:12:01.527Z,3.53
2018-05-06T04:14:27.487Z,4.27
2018-05-06T04:16:54.179Z,4.23
2018-05-06T04:19:20.142Z,3.70
2018-05-06T04:21:46.119Z,4.20
2018-05-06T04:24:12.078Z,4.07
2018-05-06T04:26:38.032Z,4.60
2018-05-06T04:29:03.991Z,4.50
2018-05-06T04:31:29.939Z,3.97
2018-05-06T04:33:56.639Z,4.30
2018-05-06T04:36:22.605Z,4.03
2018-05-06T04:38:48.571Z,4.00
2018-05-06T04:41:14.523Z,4.20
2018-05-06T04:43:40.471Z,3.80
2018-05-06T04:46:06.427Z,3.63
2018-05-06T04:48:32.386Z,4.20
2018-05-06T04:50:58.344Z,3.63
2018-05-06T04:53:24.310Z,4.40
2018-05-06T04:55:50.279Z,3.73
2018-05-06T04:58:16.236Z,3.53
2018-05-06T05:00:43.103Z,3.97
2018-05-06T05:03:09.081Z,3.90
2018-05-06T05:05:35.043Z,3.73
2018-05-06T05:08:00.997Z,4.30
2018-05-06T05:10:27.707Z,3.30
2018-05-06T05:12:53.659Z,3.60
2018-05-06T05:15:19.619Z,4.00
2018-05-06T05:17:46.307Z,3.23
2018-05-06T05:20:12.274Z,3.30
2018-05-06T05:22:38.226Z,3.93
2018-05-06T05:25:04.927Z,3.50
2018-05-06T05:27:30.925Z,3.83
2018-05-06T05:29:57.630Z,3.97
2018-05-06T05:32:23.595Z,3.60
2018-05-06T05:34:49.554Z,4.20
2018-05-06T05:37:16.242Z,3.43
2018-05-06T05:39:42.209Z,3.10
2018-05-06T05:42:08.250Z,3.73
2018-05-06T05:44:34.213Z,4.03
2018-05-06T05:47:00.169Z,3.60
2018-05-06T05:49:26.135Z,3.40
2018-05-06T05:51:52.095Z,3.80
2018-05-06T05:54:18.794Z,3.90
2018-05-06T05:56:44.758Z,2.80
2018-05-06T05:59:10.706Z,3.10
2018-05-06T06:01:37.544Z,3.27
2018-05-06T06:04:03.511Z,3.40
2018-05-06T06:06:30.218Z,3.47
2018-05-06T06:08:56.175Z,3.37
2018-05-06T06:11:22.151Z,3.43
2018-05-06T06:13:48.111Z,3.40
2018-05-06T06:16:14.078Z,3.70
2018-05-06T06:18:40.033Z,3.93
2018-05-06T06:21:05.992Z,3.40
2018-05-06T06:23:31.947Z,2.90
2018-05-06T06:25:57.899Z,3.30
2018-05-06T06:28:23.852Z,3.87
2018-05-06T06:30:49.811Z,3.00
2018-05-06T06:33:16.513Z,3.43
2018-05-06T06:35:42.551Z,3.70
2018-05-06T06:38:08.543Z,3.23
2018-05-06T06:40:34.595Z,3.57
2018-05-06T06:43:00.651Z,3.90
2018-05-06T06:45:26.619Z,3.87
2018-05-06T06:47:52.604Z,4.13
2018-05-06T06:50:18.570Z,3.97
2018-05-06T06:52:44.599Z,4.10
2018-05-06T06:55:10.566Z,4.33
2018-05-06T06:57:36.555Z,3.77
2018-05-06T07:00:02.520Z,4.00
2018-05-06T07:02:28.503Z,3.63
2018-05-06T07:04:54.463Z,3.73
2018-05-06T07:07:20.470Z,3.97
2018-05-06T07:09:46.432Z,4.23
2018-05-06T07:12:12.404Z,3.57
2018-05-06T07:14:38.372Z,4.33
2018-05-06T07:17:04.339Z,3.80
2018-05-06T07:19:30.299Z,3.90
2018-05-06T07:21:56.382Z,3.80
2018-05-06T07:24:23.683Z,4.20
2018-05-06T07:26:49.655Z,3.30
2018-05-06T07:29:16.360Z,4.40
2018-05-06T07:31:42.396Z,3.70
2018-05-06T07:34:08.367Z,3.83
2018-05-06T07:36:34.360Z,3.80
2018-05-06T07:39:00.331Z,3.93
2018-05-06T07:41:26.424Z,4.17
2018-05-06T07:43:52.999Z,4.53
2018-05-06T07:46:18.984Z,4.40
2018-05-06T07:48:45.684Z,4.90
2018-05-06T07:51:11.642Z,4.63
2018-05-06T07:53:37.611Z,4.27
2018-05-06T07:56:03.588Z,5.03
2018-05-06T07:58:29.598Z,4.53
2018-05-06T08:00:55.571Z,5.30
2018-05-06T08:03:21.538Z,5.20
2018-05-06T08:05:47.590Z,5.20
2018-05-06T08:08:13.561Z,4.83
2018-05-06T08:10:39.514Z,4.67
2018-05-06T08:13:05.475Z,5.37
2018-05-06T08:15:32.178Z,5.17
2018-05-06T08:17:58.146Z,5.23
2018-05-06T08:20:24.099Z,4.87
2018-05-06T08:22:50.803Z,4.40
2018-05-06T08:25:17.055Z,5.00
2018-05-06T08:27:43.043Z,4.30
2018-05-06T08:30:09.010Z,5.60
2018-05-06T08:32:34.971Z,5.10
2018-05-06T08:35:00.936Z,4.50
2018-05-06T08:37:27.644Z,5.37
2018-05-06T08:39:53.614Z,4.63
2018-05-06T08:42:20.310Z,4.50
2018-05-06T08:44:46.318Z,4.60
2018-05-06T08:47:13.016Z,5.80
2018-05-06T08:49:38.991Z,4.23
2018-05-06T08:52:05.756Z,4.60
2018-05-06T08:54:31.722Z,5.03
2018-05-06T08:56:57.685Z,3.83
2018-05-06T08:59:23.654Z,4.80
2018-05-06T09:01:50.359Z,4.83
2018-05-06T09:04:16.319Z,4.70
2018-05-06T09:06:42.284Z,4.40
2018-05-06T09:09:08.246Z,4.70
2018-05-06T09:11:34.215Z,4.30
2018-05-06T09:14:00.175Z,4.22
2018-05-06T09:16:26.926Z,4.60
2018-05-06T09:18:53.635Z,5.22
2018-05-06T09:21:19.615Z,4.70
2018-05-06T09:23:46.338Z,4.45
2018-05-06T09:26:12.314Z,4.55
2018-05-06T09:28:38.340Z,4.30
2018-05-06T09:31:05.132Z,4.30
2018-05-06T09:33:31.095Z,3.95
2018-05-06T09:35:57.064Z,4.35
2018-05-06T09:38:23.819Z,4.43
2018-05-06T09:40:50.526Z,4.00
2018-05-06T09:43:16.483Z,4.30
2018-05-06T09:45:42.467Z,4.12
2018-05-06T09:48:08.432Z,3.70
2018-05-06T09:50:34.399Z,3.83
2018-05-06T09:53:01.096Z,4.05
2018-05-06T09:55:27.058Z,4.37
2018-05-06T09:57:53.012Z,4.00
2018-05-06T10:00:19.995Z,4.20
2018-05-06T10:02:45.988Z,4.25
2018-05-06T10:05:11.947Z,4.07
2018-05-06T10:07:38.648Z,4.20
2018-05-06T10:10:04.649Z,3.97
2018-05-06T10:12:30.639Z,3.70
2018-05-06T10:14:56.613Z,4.50
2018-05-06T10:17:23.308Z,3.92
2018-05-06T10:19:49.270Z,3.60
2018-05-06T10:22:15.329Z,4.00
2018-05-06T10:24:41.218Z,4.10
2018-05-06T10:27:07.171Z,4.15
2018-05-06T10:29:33.136Z,4.72
2018-05-06T10:31:59.844Z,4.55
2018-05-06T10:34:26.671Z,4.75
2018-05-06T10:36:52.635Z,4.55
2018-05-06T10:39:19.818Z,3.53
2018-05-06T10:41:45.883Z,4.95
2018-05-06T10:44:11.946Z,6.72
2018-05-06T10:46:38.675Z,6.68
2018-05-06T10:49:04.830Z,7.12
2018-05-06T10:51:30.734Z,5.80
2018-05-06T10:53:57.489Z,4.60
2018-05-06T10:56:24.215Z,4.15
2018-05-06T10:58:50.318Z,3.55
2018-05-06T11:01:16.295Z,4.32
2018-05-06T11:03:42.267Z,3.85
2018-05-06T11:06:08.226Z,3.25
2018-05-06T11:08:34.186Z,3.85
2018-05-06T11:11:00.151Z,3.67
2018-05-06T11:13:26.858Z,3.65
2018-05-06T11:15:52.859Z,3.50
2018-05-06T11:18:18.814Z,3.47
2018-05-06T11:20:44.811Z,3.92
2018-05-06T11:23:11.572Z,3.47
2018-05-06T11:25:37.543Z,4.00
2018-05-06T11:28:03.510Z,3.35
2018-05-06T11:30:29.578Z,3.90
2018-05-06T11:32:56.283Z,3.78
2018-05-06T11:35:22.999Z,3.42
2018-05-06T11:37:48.967Z,3.25
2018-05-06T11:40:14.927Z,3.10
2018-05-06T11:42:40.898Z,3.28
2018-05-06T11:45:06.869Z,6.05
2018-05-06T11:47:35.157Z,2.92
2018-05-06T11:50:01.303Z,3.50
2018-05-06T11:52:27.271Z,3.20
2018-05-06T11:54:53.967Z,3.03
2018-05-06T11:57:19.930Z,3.37
2018-05-06T11:59:53.376Z,3.00
2018-05-06T12:02:19.785Z,3.17
2018-05-06T12:04:45.762Z,3.35
2018-05-06T12:07:11.783Z,3.35
2018-05-06T12:09:38.560Z,3.08
2018-05-06T12:12:04.571Z,3.33
2018-05-06T12:14:31.339Z,3.72
2018-05-06T12:16:57.368Z,3.67
2018-05-06T12:19:25.157Z,3.35
2018-05-06T12:21:51.181Z,3.40
2018-05-06T12:24:17.938Z,3.45
2018-05-06T12:26:44.691Z,3.92
2018-05-06T12:29:10.740Z,3.35
2018-05-06T12:31:36.710Z,3.12
2018-05-06T12:34:02.712Z,3.40
2018-05-06T12:36:28.728Z,3.12
2018-05-06T12:38:54.766Z,3.20
2018-05-06T12:41:21.535Z,3.90
2018-05-06T12:43:47.500Z,3.45
2018-05-06T12:46:20.415Z,3.10
2018-05-06T12:48:46.404Z,3.53
2018-05-06T12:51:12.430Z,3.28
2018-05-06T12:53:38.459Z,3.30
2018-05-06T12:56:05.157Z,3.40
2018-05-06T12:58:31.122Z,3.20
2018-05-06T13:00:57.180Z,3.33
2018-05-06T13:03:23.898Z,3.17
2018-05-06T13:05:49.855Z,3.12
2018-05-06T13:08:15.971Z,2.90
2018-05-06T13:10:42.728Z,3.20
2018-05-06T13:13:08.687Z,3.28
2018-05-06T13:15:35.419Z,3.10
2018-05-06T13:18:01.472Z,3.30
2018-05-06T13:20:28.189Z,2.92
2018-05-06T13:22:54.148Z,3.55
2018-05-06T13:25:20.221Z,3.30
2018-05-06T13:27:46.216Z,3.17
2018-05-06T13:30:12.184Z,3.30
2018-05-06T13:32:38.903Z,3.50
2018-05-06T13:35:04.886Z,3.45
2018-05-06T13:37:30.903Z,2.85
2018-05-06T13:39:57.612Z,2.80
2018-05-06T13:42:23.576Z,2.65
2018-05-06T13:44:50.279Z,3.33
2018-05-06T13:47:16.253Z,2.83
2018-05-06T13:49:42.225Z,2.90
2018-05-06T13:52:08.231Z,3.25
2018-05-06T13:54:34.950Z,3.08
2018-05-06T13:57:00.927Z,2.53
2018-05-06T13:59:27.713Z,3.00
2018-05-06T14:01:53.727Z,2.70
2018-05-06T14:04:19.756Z,3.17
2018-05-06T14:06:46.471Z,3.10
2018-05-06T14:09:12.441Z,3.08
2018-05-06T14:11:39.212Z,2.78
2018-05-06T14:14:05.231Z,2.75
2018-05-06T14:16:31.999Z,2.80
2018-05-06T14:18:58.052Z,2.65
2018-05-06T14:21:24.023Z,2.28
2018-05-06T14:23:50.004Z,2.57
2018-05-06T14:26:16.063Z,2.12
2018-05-06T14:28:42.027Z,2.20
2018-05-06T14:31:08.107Z,2.20
2018-05-06T14:33:34.191Z,2.42
2018-05-06T14:36:00.162Z,2.83
2018-05-06T14:38:26.938Z,2.30
2018-05-06T14:40:52.922Z,2.20
2018-05-06T14:43:18.891Z,2.60
2018-05-06T14:45:45.607Z,2.30
2018-05-06T14:48:14.570Z,2.35
2018-05-06T14:50:40.595Z,2.30
2018-05-06T14:53:06.602Z,2.50
2018-05-06T14:55:32.732Z,2.65
2018-05-06T14:57:59.457Z,2.22
2018-05-06T15:00:25.424Z,2.53
2018-05-06T15:02:51.412Z,2.58
2018-05-06T15:05:17.375Z,2.80
2018-05-06T15:07:44.190Z,2.70
2018-05-06T15:10:10.176Z,2.40
2018-05-06T15:12:36.151Z,2.73
2018-05-06T15:15:02.192Z,3.42
2018-05-06T15:17:28.222Z,2.60
2018-05-06T15:19:54.263Z,2.10
2018-05-06T15:22:20.227Z,3.30
2018-05-06T15:24:46.183Z,2.50
2018-05-06T15:27:12.282Z,2.33
2018-05-06T15:29:38.303Z,2.70
2018-05-06T15:32:04.287Z,3.00
2018-05-06T15:34:30.279Z,2.63
2018-05-06T15:36:56.239Z,2.43
2018-05-06T15:39:22.295Z,2.73
2018-05-06T15:41:48.262Z,2.57
2018-05-06T15:44:15.236Z,2.83
2018-05-06T15:46:42.193Z,2.43
2018-05-06T15:49:08.227Z,2.33
2018-05-06T15:51:34.286Z,2.60
2018-05-06T15:54:00.323Z,2.70
2018-05-06T15:56:26.286Z,2.83
2018-05-06T15:58:52.282Z,2.53
2018-05-06T16:01:18.245Z,2.40
2018-05-06T16:03:56.781Z,2.40
2018-05-06T16:06:22.743Z,2.50
2018-05-06T16:08:48.714Z,2.90
2018-05-06T16:11:14.684Z,2.97
2018-05-06T16:13:40.646Z,2.43
2018-05-06T16:16:06.616Z,2.50
2018-05-06T16:18:32.579Z,2.53
2018-05-06T16:20:58.535Z,3.00
2018-05-06T16:23:24.506Z,2.80
2018-05-06T16:25:51.274Z,2.80
2018-05-06T16:28:17.235Z,2.63
2018-05-06T16:30:43.200Z,2.83
2018-05-06T16:33:09.167Z,2.67
2018-05-06T16:35:35.870Z,2.10
2018-05-06T16:38:01.827Z,5.67
2018-05-06T16:40:27.799Z,4.50
2018-05-06T16:42:53.754Z,4.53
2018-05-06T16:45:19.730Z,2.77
2018-05-06T16:47:45.689Z,3.17
2018-05-06T16:50:12.394Z,2.00
2018-05-06T16:52:38.406Z,2.43
2018-05-06T16:55:04.308Z,2.30
2018-05-06T16:57:31.011Z,2.47
2018-05-06T16:59:57.837Z,2.60
2018-05-06T17:02:23.827Z,2.20
2018-05-06T17:04:49.907Z,2.70
2018-05-06T17:07:15.926Z,2.30
2018-05-06T17:09:42.635Z,2.40
2018-05-06T17:12:08.607Z,2.70
2018-05-06T17:14:35.315Z,2.40
2018-05-06T17:17:01.279Z,3.20
2018-05-06T17:19:27.979Z,2.40
2018-05-06T17:21:54.010Z,2.67
2018-05-06T17:24:19.950Z,2.30
2018-05-06T17:26:45.919Z,3.40
2018-05-06T17:29:11.890Z,2.30
2018-05-06T17:31:38.607Z,1.97
2018-05-06T17:34:04.560Z,2.70
2018-05-06T17:36:31.335Z,2.47
2018-05-06T17:38:58.026Z,2.27
2018-05-06T17:41:23.983Z,2.50
2018-05-06T17:43:49.944Z,2.30
2018-05-06T17:46:16.655Z,2.60
2018-05-06T17:48:42.619Z,2.60
2018-05-06T17:51:08.674Z,2.40
2018-05-06T17:53:35.383Z,2.23
2018-05-06T17:56:01.363Z,2.30
2018-05-06T17:58:27.327Z,1.73
2018-05-06T18:00:53.307Z,2.20
2018-05-06T18:03:19.271Z,2.00
2018-05-06T18:05:45.235Z,1.90
2018-05-06T18:08:11.196Z,1.60
2018-05-06T18:10:37.166Z,2.03
2018-05-06T18:13:03.891Z,1.67
2018-05-06T18:15:29.852Z,1.80
2018-05-06T18:17:56.555Z,2.03
2018-05-06T18:20:22.552Z,1.77
2018-05-06T18:22:48.511Z,2.33
2018-05-06T18:25:14.467Z,1.63
2018-05-06T18:27:40.440Z,2.33
2018-05-06T18:30:07.154Z,1.90
2018-05-06T18:32:33.110Z,2.50
2018-05-06T18:34:59.062Z,2.10
2018-05-06T18:37:25.770Z,1.60
2018-05-06T18:39:51.747Z,1.70
2018-05-06T18:42:18.494Z,1.70
2018-05-06T18:44:45.193Z,2.13
2018-05-06T18:47:11.207Z,2.13
2018-05-06T18:49:37.193Z,1.97
2018-05-06T18:52:03.171Z,1.73
2018-05-06T18:54:29.132Z,1.40
2018-05-06T18:56:55.134Z,1.57
2018-05-06T18:59:21.835Z,2.00
2018-05-06T19:01:47.802Z,1.93
2018-05-06T19:04:14.012Z,2.03
2018-05-06T19:06:39.987Z,2.20
2018-05-06T19:09:06.686Z,1.90
2018-05-06T19:11:32.639Z,2.33
2018-05-06T19:13:58.597Z,1.70
2018-05-06T19:16:24.659Z,1.90
2018-05-06T19:18:50.618Z,2.07
2018-05-06T19:21:16.566Z,2.07
2018-05-06T19:23:42.518Z,2.20
2018-05-06T19:26:08.470Z,1.80
2018-05-06T19:28:35.174Z,2.00
2018-05-06T19:31:01.130Z,1.90
2018-05-06T19:33:27.115Z,1.90
2018-05-06T19:35:53.071Z,2.13
2018-05-06T19:38:19.093Z,1.80
2018-05-06T19:40:45.051Z,2.03
2018-05-06T19:43:11.010Z,1.87
2018-05-06T19:45:36.982Z,1.90
2018-05-06T19:48:03.687Z,1.60
2018-05-06T19:50:29.651Z,1.80
2018-05-06T19:52:55.611Z,2.17
2018-05-06T19:55:21.570Z,1.87
2018-05-06T19:57:47.583Z,2.07
2018-05-06T20:00:13.535Z,2.10
2018-05-06T20:02:39.487Z,2.00
2018-05-06T20:05:05.458Z,1.70
2018-05-06T20:07:31.408Z,1.77
2018-05-06T20:09:58.111Z,1.77
2018-05-06T20:12:24.087Z,2.00
2018-05-06T20:14:50.787Z,1.80
2018-05-06T20:17:16.751Z,1.73
2018-05-06T20:19:42.716Z,1.90
2018-05-06T20:22:09.412Z,1.77
2018-05-06T20:24:35.381Z,1.90
2018-05-06T20:27:01.338Z,1.70
2018-05-06T20:29:28.042Z,5.10
2018-05-06T20:31:54.007Z,2.60
2018-05-06T20:34:19.994Z,2.73
2018-05-06T20:36:46.000Z,2.40
2018-05-06T20:39:11.971Z,5.43
2018-05-06T20:41:37.953Z,2.30
2018-05-06T20:44:04.655Z,1.83
2018-05-06T20:46:30.610Z,2.37
2018-05-06T20:48:56.595Z,1.63
2018-05-06T20:51:22.543Z,1.63
2018-05-06T20:53:48.503Z,1.83
2018-05-06T20:56:14.460Z,2.13
2018-05-06T20:58:40.426Z,2.00
2018-05-06T21:01:07.279Z,1.83
2018-05-06T21:03:33.999Z,2.13
2018-05-06T21:05:59.965Z,1.80
2018-05-06T21:08:25.931Z,2.13
2018-05-06T21:10:51.906Z,1.60
2018-05-06T21:13:17.878Z,1.80
2018-05-06T21:15:43.843Z,1.83
2018-05-06T21:18:09.800Z,1.70
2018-05-06T21:20:35.875Z,1.90
2018-05-06T21:23:02.567Z,1.80
2018-05-06T21:25:28.566Z,1.70
2018-05-06T21:27:55.274Z,1.90
2018-05-06T21:30:21.211Z,2.17
2018-05-06T21:32:47.167Z,2.50
2018-05-06T21:35:13.122Z,2.43
2018-05-06T21:37:39.215Z,3.13
2018-05-06T21:40:05.043Z,16.07
2018-05-06T21:42:30.999Z,3.10
2018-05-06T21:44:57.029Z,3.53
2018-05-06T21:47:22.921Z,2.07
2018-05-06T21:49:48.897Z,2.23
2018-05-06T21:52:14.858Z,2.80
2018-05-06T21:54:41.563Z,1.70
2018-05-06T21:57:07.536Z,2.00
2018-05-06T21:59:34.238Z,2.13
2018-05-06T22:02:00.190Z,2.13
2018-05-06T22:04:26.982Z,2.77
2018-05-06T22:06:53.682Z,2.30
2018-05-06T22:09:19.644Z,1.90
2018-05-06T22:11:45.611Z,2.67
2018-05-06T22:14:11.570Z,2.13
2018-05-06T22:16:37.534Z,2.03
2018-05-06T22:19:03.545Z,2.73
2018-05-06T22:21:29.546Z,3.67
2018-05-06T22:23:56.266Z,2.10
2018-05-06T22:26:22.243Z,2.23
2018-05-06T22:28:48.379Z,1.63
2018-05-06T22:31:14.354Z,1.67
2018-05-06T22:33:40.313Z,1.77
2018-05-06T22:36:06.347Z,1.90
2018-05-06T22:38:32.315Z,1.90
2018-05-06T22:40:59.099Z,1.60
2018-05-06T22:43:25.055Z,1.90
2018-05-06T22:45:51.023Z,2.10
2018-05-06T22:48:17.739Z,1.80
2018-05-06T22:50:43.728Z,1.60
2018-05-06T22:53:09.763Z,1.73
2018-05-06T22:55:35.731Z,2.07
2018-05-06T22:58:01.695Z,1.93
2018-05-06T23:00:27.660Z,2.10
2018-05-06T23:02:54.363Z,1.33
2018-05-06T23:05:20.332Z,1.53
2018-05-06T23:07:47.028Z,1.60
2018-05-06T23:10:12.995Z,1.80
2018-05-06T23:12:38.955Z,2.03
2018-05-06T23:15:05.775Z,1.97
2018-05-06T23:17:31.743Z,1.87
2018-05-06T23:19:58.590Z,1.97
2018-05-06T23:22:24.526Z,1.87
2018-05-06T23:24:50.490Z,1.97
2018-05-06T23:27:16.542Z,1.63
2018-05-06T23:29:42.498Z,1.73
2018-05-06T23:32:08.467Z,2.30
2018-05-06T23:34:34.486Z,1.70
2018-05-06T23:37:00.543Z,1.83
2018-05-06T23:39:27.242Z,1.73
2018-05-06T23:41:53.212Z,1.83
2018-05-06T23:44:19.406Z,1.90
2018-05-06T23:46:45.591Z,1.50
2018-05-06T23:49:13.056Z,1.97
2018-05-06T23:51:39.039Z,1.60
2018-05-06T23:54:05.007Z,2.00
2018-05-06T23:56:31.029Z,1.90
2018-05-06T23:58:56.928Z,1.97
